Airfield :
LOGIN :

Register | Disclaimer

   EN    FR    IT 

 










Legend :    VFR   Marginal VFR   IFR   Intensive IFR   Very Intensive IFR
Visi :
Ceiling :
>= 8 km
>= 3000ft
5 to 8 km
1000 to 3000 ft
1500m to 5 km
500 to 1000 ft
800 to 1500m
200 to 500 ft
< 800m
< 200 ft
Symbols :   Thunderstorms  Fog  Heavy snow  Heavy precipitations  Wind > 20 kt
SIGMETs :     Misc.  Thunderstorms  Icing  Turbulence  Mountain Waves  Volcanic Ashes






- Airport Elevation : 788 ft
- IATA code : DCM


LFCK - Castres-Mazamet

CURRENT METAR :
  • 071900Z AUTO 12002KT 7000 OVC031 07/07 Q1025 TEMPO 0600 FG VV///

EXPIRED METARs :
  • 071830Z AUTO 00000KT 7000 OVC031 07/07 Q1025 TEMPO 0600 FG VV///
  • 071800Z AUTO 00000KT 6000 OVC032 06/06 Q1025 TEMPO 4000 BR BKN010
  • 071730Z AUTO VRB01KT 6000 FEW031 BKN042 06/05 Q1025 TEMPO 4000 BR BKN010
  • 071700Z AUTO 30001KT 9999 4800 BKN042 08/07 Q1024 TEMPO BKN013
  • 071630Z AUTO 00000KT 9999 FEW040 08/06 Q1024 TEMPO BKN013

TAF TAF LFCK
Valid from the 07 at 18:00 until the 08 at 03:00 UTC


071700Z 0718/0803 VRB03KT 9999 BKN030
PROB40
TEMPO 0718/0721 4000 BR BKN010
PROB30
TEMPO 0720/0803 0600 FG VV///



MET'MAP, your aeronautical weather chart ! - Copyright ORBIFLY December 2007 - Disclaimer

ORBIFLY MET'MAP TEAM :

Programming & Development : Alexandra Zaïnal
Concept & original design : Baudouin d'Aumeries
Assistance for programming : Marc-Olivier Méhu
Technical & hardware support : Manuel Goepfert

Contact : metmap@orbifly.com




SOURCES & CREDITS :

   NOAA